weather.gov     
National Weather Service

Terminal Aerodrome Forecast
NWS Homepage
This page is being discontinued on March 12, 2014.
The same data is available at this site. Please update your bookmarks.
Thank you, and we apologize for the inconvenience.
Please send an email to SR-SRH.Webmaster@noaa.gov with any concerns.


Current Version
Previous Version:    01  02  03  04  05  06  07  08  09  10  11  12  13  14  15  16  17  18  19  20  21  22  23  24  25  26  27  28  29  30  
   31  32  33  34  35  36  37  38  39  40  41  42  43  
[Printable]
447
FTUS42 KTBW 180800 AAB
TAFPIE
TAF AMD
KPIE 180818Z 1808/1906 10011KT P6SM FEW007 SCT015
      TEMPO 1808/1812 BKN015
     FM181400 13013KT P6SM VCSH SCT015 BKN025
     FM181700 16014G24KT P6SM VCTS SCT020CB BKN035
     FM182000 19016G25KT P6SM VCTS SCT025CB BKN050
     FM190100 21013KT P6SM VCSH SCT010 BKN035=


U.S. Dept. of Commerce
NOAA National Weather Service
1325 East West Highway
Silver Spring, MD 20910
E-mail: w-nws.webmaster@noaa.gov
Page last modified: May 16, 2007
NATIONAL WEATHER SERVICE: for Safety, for Work, for Fun - FOR LIFE